Time;durP1;ratioP1;P1;durP2;ratioP2;P2;SDS_P1;SDS_P2;PMS_P1;PMS_P2;Temp;Humidity;BMP_temperature;BMP_pressure;BME280_temperature;BME280_humidity;BME280_pressure;Samples;Min_cycle;Max_cycle;Signal;HPM_P1;HPM_P2
2021/03/18 00:01:45;;;;;;;0.80;0.80;;;19.20;24.10;;;;;;5074421;28;20466;-52
2021/03/18 00:04:16;;;;;;;1.77;0.90;;;19.20;24.10;;;;;;5074050;28;20649;-51
2021/03/18 00:06:46;;;;;;;0.90;0.77;;;19.20;24.10;;;;;;5074247;28;20200;-52
2021/03/18 00:09:16;;;;;;;1.30;0.90;;;19.20;24.10;;;;;;5074105;28;20174;-52
2021/03/18 00:11:44;;;;;;;0.95;0.95;;;19.20;24.10;;;;;;5074228;28;20154;-53
2021/03/18 00:14:12;;;;;;;0.93;0.82;;;19.20;24.10;;;;;;5072148;28;20158;-52
2021/03/18 00:16:38;;;;;;;1.08;0.98;;;19.20;24.10;;;;;;5074136;28;20197;-52
2021/03/18 00:19:04;;;;;;;1.10;0.97;;;19.20;24.10;;;;;;5073681;28;20166;-51
2021/03/18 00:21:30;;;;;;;1.80;1.30;;;19.20;24.10;;;;;;5073931;28;20163;-52
2021/03/18 00:23:55;;;;;;;1.07;0.90;;;19.20;24.10;;;;;;5073808;28;20170;-52
2021/03/18 00:26:29;;;;;;;1.17;1.07;;;19.20;24.20;;;;;;5073945;28;20213;-52
2021/03/18 00:28:55;;;;;;;1.48;1.10;;;19.20;24.10;;;;;;5073311;28;20154;-51
2021/03/18 00:31:26;;;;;;;1.38;0.90;;;19.20;24.10;;;;;;5073895;28;20151;-52
2021/03/18 00:33:55;;;;;;;1.75;1.38;;;19.20;24.10;;;;;;5073652;28;20158;-53
2021/03/18 00:36:22;;;;;;;1.67;1.10;;;19.20;24.10;;;;;;5073976;28;20181;-51
2021/03/18 00:38:48;;;;;;;1.98;1.38;;;19.20;24.10;;;;;;5072254;28;20637;-52
2021/03/18 00:41:14;;;;;;;1.20;1.00;;;19.20;24.10;;;;;;5073972;28;20163;-52
2021/03/18 00:43:40;;;;;;;1.30;1.00;;;19.20;24.10;;;;;;5073786;28;20481;-52
2021/03/18 00:46:07;;;;;;;1.73;0.63;;;19.20;24.10;;;;;;5073093;28;20456;-52
2021/03/18 00:48:34;;;;;;;1.00;0.80;;;19.20;24.10;;;;;;5073327;28;20178;-51
2021/03/18 00:51:05;;;;;;;1.83;1.00;;;19.20;24.10;;;;;;5073441;28;20162;-51
2021/03/18 00:53:40;;;;;;;2.00;0.80;;;19.20;24.20;;;;;;5073191;28;20232;-51
2021/03/18 00:56:11;;;;;;;1.17;0.95;;;19.20;24.10;;;;;;5071549;28;20189;-51
2021/03/18 00:58:39;;;;;;;1.92;1.02;;;19.20;24.10;;;;;;5073400;28;20201;-51
2021/03/18 01:01:06;;;;;;;1.05;0.80;;;19.20;24.10;;;;;;5072334;28;20159;-53
2021/03/18 01:03:34;;;;;;;1.02;0.73;;;19.20;24.10;;;;;;5072092;28;20209;-53
2021/03/18 01:06:27;;;;;;;2.60;1.52;;;19.20;24.10;;;;;;5073025;28;20225;-53
2021/03/18 01:08:54;;;;;;;1.33;0.95;;;19.20;24.10;;;;;;5069986;28;20188;-54
2021/03/18 01:11:35;;;;;;;0.88;0.88;;;19.20;24.10;;;;;;5073314;28;20217;-54
2021/03/18 01:14:07;;;;;;;0.85;0.70;;;19.20;24.10;;;;;;5072943;28;20146;-53
2021/03/18 01:16:38;;;;;;;1.40;1.10;;;19.20;24.10;;;;;;5073417;28;20159;-53
2021/03/18 01:19:07;;;;;;;1.13;1.02;;;19.10;24.00;;;;;;5073179;28;20161;-54
2021/03/18 01:21:37;;;;;;;0.82;0.80;;;19.20;24.10;;;;;;5073467;28;20150;-55
2021/03/18 01:24:03;;;;;;;0.80;0.70;;;19.10;24.00;;;;;;5073240;28;20293;-54
2021/03/18 01:26:34;;;;;;;1.25;0.90;;;19.10;24.00;;;;;;5073454;28;20213;-54
2021/03/18 01:29:00;;;;;;;0.95;0.85;;;19.10;24.00;;;;;;5072735;28;20150;-54
2021/03/18 01:31:26;;;;;;;1.60;0.90;;;19.10;24.00;;;;;;5073232;28;20154;-54
2021/03/18 01:33:55;;;;;;;1.23;1.00;;;19.10;24.00;;;;;;5073059;28;20422;-53
2021/03/18 01:36:22;;;;;;;0.98;0.90;;;19.10;24.00;;;;;;5073205;28;20448;-54
2021/03/18 01:38:48;;;;;;;1.83;1.30;;;19.10;24.10;;;;;;5073213;28;20165;-53
2021/03/18 01:41:19;;;;;;;1.20;0.90;;;19.10;24.00;;;;;;5073093;28;20158;-53
2021/03/18 01:43:45;;;;;;;1.05;0.85;;;19.10;24.00;;;;;;5073147;28;20161;-53
2021/03/18 01:46:12;;;;;;;1.17;0.90;;;19.10;24.00;;;;;;5072331;28;20208;-54
2021/03/18 01:48:39;;;;;;;2.08;1.40;;;19.10;24.00;;;;;;5072962;28;20191;-55
2021/03/18 01:51:05;;;;;;;0.90;0.80;;;19.10;24.00;;;;;;5073041;28;20159;-54
2021/03/18 01:53:31;;;;;;;1.23;1.13;;;19.10;24.00;;;;;;5071601;28;20222;-53
2021/03/18 01:55:58;;;;;;;1.00;0.90;;;19.10;24.00;;;;;;5073048;28;20238;-56
2021/03/18 01:58:25;;;;;;;1.15;0.90;;;19.10;24.00;;;;;;5073120;28;20159;-53
2021/03/18 02:00:57;;;;;;;1.20;1.10;;;19.10;24.00;;;;;;5071029;28;20166;-53
2021/03/18 02:03:41;;;;;;;1.98;0.90;;;19.10;24.10;;;;;;5068875;28;20266;-54
2021/03/18 02:06:07;;;;;;;1.20;0.80;;;19.10;24.00;;;;;;5052671;28;20274;-54
2021/03/18 02:08:34;;;;;;;1.42;1.00;;;19.10;24.60;;;;;;5052891;28;20169;-54
2021/03/18 02:11:05;;;;;;;2.58;1.35;;;19.10;24.00;;;;;;5052770;28;20669;-53
2021/03/18 02:13:31;;;;;;;1.80;0.98;;;19.10;24.00;;;;;;5052907;28;20238;-54
2021/03/18 02:16:13;;;;;;;1.33;1.23;;;19.10;24.00;;;;;;5052175;28;20248;-54
2021/03/18 02:18:50;;;;;;;0.85;0.80;;;19.10;24.00;;;;;;5052781;28;20151;-53
2021/03/18 02:21:32;;;;;;;0.82;0.80;;;19.10;24.00;;;;;;5054307;28;20551;-53
2021/03/18 02:24:22;;;;;;;0.85;0.68;;;19.10;24.00;;;;;;5056303;28;20155;-53
2021/03/18 02:27:06;;;;;;;1.27;0.88;;;19.10;24.00;;;;;;5056448;28;20183;-54
2021/03/18 02:29:37;;;;;;;0.90;0.70;;;19.10;24.00;;;;;;5055835;28;20420;-54
2021/03/18 02:32:21;;;;;;;1.65;0.93;;;19.10;24.00;;;;;;5054973;28;20241;-54
2021/03/18 02:35:07;;;;;;;0.95;0.85;;;19.00;23.90;;;;;;5055436;28;20174;-53
2021/03/18 02:37:38;;;;;;;2.08;1.10;;;19.00;24.00;;;;;;5056261;28;20261;-54
2021/03/18 02:40:13;;;;;;;1.20;1.10;;;19.00;23.90;;;;;;5055954;28;20661;-54
2021/03/18 02:42:41;;;;;;;0.80;0.80;;;19.00;23.90;;;;;;5056306;28;20166;-54
2021/03/18 02:45:09;;;;;;;1.30;0.85;;;19.00;23.90;;;;;;5054146;28;20195;-54
2021/03/18 02:47:37;;;;;;;1.00;0.90;;;19.00;23.90;;;;;;5056183;28;20242;-54
2021/03/18 02:50:05;;;;;;;1.02;0.90;;;19.00;23.90;;;;;;5055714;28;20156;-54
2021/03/18 02:52:35;;;;;;;1.02;0.80;;;19.00;23.90;;;;;;5055962;28;20147;-53
2021/03/18 02:55:03;;;;;;;1.35;0.93;;;19.00;23.90;;;;;;5055714;28;20179;-54
2021/03/18 02:57:32;;;;;;;1.67;1.10;;;19.00;23.90;;;;;;5055801;28;20562;-53
2021/03/18 02:59:59;;;;;;;1.20;0.95;;;19.00;23.90;;;;;;5055071;28;20606;-54
2021/03/18 03:02:28;;;;;;;1.42;0.90;;;19.00;23.90;;;;;;5064956;28;20220;-54
2021/03/18 03:04:56;;;;;;;0.90;0.60;;;19.00;24.00;;;;;;5075482;28;20170;-54
2021/03/18 03:07:24;;;;;;;1.40;1.23;;;19.00;23.90;;;;;;5076061;28;20483;-53
2021/03/18 03:09:54;;;;;;;1.60;1.20;;;19.00;23.90;;;;;;5075599;28;20158;-54
2021/03/18 03:12:24;;;;;;;0.95;0.85;;;19.00;23.90;;;;;;5075603;28;20157;-53
2021/03/18 03:14:52;;;;;;;1.00;0.80;;;19.00;24.00;;;;;;5075085;28;20242;-54
2021/03/18 03:17:20;;;;;;;0.90;0.80;;;19.00;23.90;;;;;;5075520;28;20242;-54
2021/03/18 03:19:48;;;;;;;0.90;0.70;;;19.00;23.90;;;;;;5075314;28;20180;-54
2021/03/18 03:22:15;;;;;;;0.90;0.85;;;19.00;24.00;;;;;;5075367;28;20159;-52
2021/03/18 03:24:44;;;;;;;0.70;0.70;;;19.00;24.00;;;;;;5075244;28;20155;-51
2021/03/18 03:27:11;;;;;;;0.80;0.80;;;19.00;23.90;;;;;;5075141;28;20196;-52
2021/03/18 03:29:43;;;;;;;0.80;0.70;;;19.00;23.90;;;;;;5074809;28;20159;-51
2021/03/18 03:32:10;;;;;;;1.30;1.20;;;19.00;23.90;;;;;;5074911;28;20173;-52
2021/03/18 03:34:38;;;;;;;1.08;0.80;;;19.00;24.20;;;;;;5075114;28;20159;-52
2021/03/18 03:37:05;;;;;;;1.42;0.82;;;19.00;23.90;;;;;;5074928;28;20162;-51
2021/03/18 03:39:32;;;;;;;1.15;1.05;;;19.00;23.90;;;;;;5074930;28;20162;-51
2021/03/18 03:41:59;;;;;;;3.03;0.75;;;19.00;23.90;;;;;;5074853;28;20163;-52
2021/03/18 03:44:24;;;;;;;1.13;0.98;;;19.00;24.00;;;;;;5074494;28;20189;-52
2021/03/18 03:46:58;;;;;;;1.10;1.00;;;19.00;23.90;;;;;;5074976;28;20222;-51
2021/03/18 03:49:26;;;;;;;1.85;1.02;;;19.00;23.90;;;;;;5074592;28;20170;-52
2021/03/18 03:52:10;;;;;;;1.00;0.90;;;19.00;23.90;;;;;;5073537;28;20198;-51
2021/03/18 03:54:59;;;;;;;1.48;1.38;;;19.00;24.00;;;;;;5074679;28;20174;-54
2021/03/18 03:58:09;;;;;;;1.15;1.05;;;19.00;23.90;;;;;;5073316;28;20172;-54
2021/03/18 04:00:36;;;;;;;1.15;1.00;;;19.00;23.90;;;;;;5074045;28;20613;-53
2021/03/18 04:03:05;;;;;;;0.93;0.93;;;19.00;23.90;;;;;;5074549;28;20574;-54
2021/03/18 04:05:32;;;;;;;1.20;0.93;;;19.00;23.90;;;;;;5074389;28;20178;-54
2021/03/18 04:08:00;;;;;;;1.08;0.98;;;19.00;23.90;;;;;;5074558;28;20208;-55
2021/03/18 04:10:30;;;;;;;1.38;0.88;;;19.00;23.90;;;;;;5074376;28;20155;-54
2021/03/18 04:13:00;;;;;;;1.30;1.20;;;19.00;23.90;;;;;;5074389;28;20290;-54
2021/03/18 04:15:27;;;;;;;1.33;0.90;;;19.00;23.90;;;;;;5072641;28;20237;-55
2021/03/18 04:17:53;;;;;;;0.95;0.85;;;19.00;23.90;;;;;;5074464;28;20625;-54
2021/03/18 04:20:23;;;;;;;1.17;0.98;;;19.00;23.90;;;;;;5074023;28;20163;-53
2021/03/18 04:22:53;;;;;;;0.80;0.80;;;19.00;23.90;;;;;;5074256;28;20165;-54
2021/03/18 04:25:21;;;;;;;1.10;1.00;;;19.00;23.90;;;;;;5073799;28;20182;-54
2021/03/18 04:27:48;;;;;;;0.85;0.77;;;19.00;23.90;;;;;;5074136;28;20520;-54
2021/03/18 04:30:15;;;;;;;1.20;1.10;;;19.00;23.90;;;;;;5073455;28;20190;-54
2021/03/18 04:32:43;;;;;;;1.00;0.82;;;19.00;23.90;;;;;;5073929;28;20646;-53
2021/03/18 04:35:10;;;;;;;1.10;1.00;;;19.00;23.90;;;;;;5073753;28;20146;-53
2021/03/18 04:37:40;;;;;;;1.20;0.90;;;19.00;23.90;;;;;;5074035;28;20249;-54
2021/03/18 04:40:08;;;;;;;0.73;0.70;;;19.00;23.90;;;;;;5073630;28;20237;-54
2021/03/18 04:42:35;;;;;;;1.00;0.85;;;19.00;23.90;;;;;;5073760;28;20178;-53
2021/03/18 04:45:03;;;;;;;0.93;0.82;;;19.00;23.90;;;;;;5072525;28;20166;-53
2021/03/18 04:47:31;;;;;;;1.83;1.15;;;19.00;23.90;;;;;;5073943;28;20246;-54
2021/03/18 04:50:01;;;;;;;1.20;1.00;;;19.00;23.80;;;;;;5073408;28;20155;-53
2021/03/18 04:52:27;;;;;;;0.98;0.77;;;19.00;23.90;;;;;;5073559;28;20162;-55
2021/03/18 04:54:58;;;;;;;1.63;1.20;;;19.00;23.90;;;;;;5073512;28;20154;-54
2021/03/18 04:57:25;;;;;;;0.80;0.80;;;19.00;23.80;;;;;;5072489;28;20154;-54
2021/03/18 04:59:56;;;;;;;1.23;1.02;;;19.00;23.80;;;;;;5072976;28;20242;-53
2021/03/18 05:02:25;;;;;;;1.00;0.90;;;19.00;23.80;;;;;;5073510;28;20300;-54
2021/03/18 05:04:52;;;;;;;1.30;1.10;;;19.00;23.80;;;;;;5073469;28;20207;-54
2021/03/18 05:07:20;;;;;;;1.73;1.20;;;19.00;23.80;;;;;;5073447;28;20233;-53
2021/03/18 05:09:46;;;;;;;1.42;0.90;;;19.00;23.80;;;;;;5073314;28;20243;-53
2021/03/18 05:12:12;;;;;;;1.00;1.00;;;19.00;23.80;;;;;;5072163;28;20200;-54
2021/03/18 05:14:39;;;;;;;1.20;0.80;;;19.00;23.80;;;;;;5072942;28;20200;-54
2021/03/18 05:17:05;;;;;;;0.95;0.80;;;19.00;23.80;;;;;;5073394;28;20382;-53
2021/03/18 05:19:32;;;;;;;1.42;0.90;;;19.00;23.80;;;;;;5072107;28;20216;-53
2021/03/18 05:21:58;;;;;;;0.88;0.88;;;19.00;23.80;;;;;;5073398;28;20163;-53
2021/03/18 05:24:24;;;;;;;1.17;0.90;;;19.00;23.80;;;;;;5073313;28;20162;-54
2021/03/18 05:26:50;;;;;;;0.70;0.70;;;19.00;23.80;;;;;;5073422;28;20453;-53
2021/03/18 05:29:19;;;;;;;1.23;1.08;;;19.00;23.80;;;;;;5072738;28;20162;-54
2021/03/18 05:31:45;;;;;;;0.75;0.75;;;19.00;23.80;;;;;;5073235;28;20504;-53
2021/03/18 05:34:12;;;;;;;2.20;1.03;;;19.00;23.80;;;;;;5073048;28;20628;-53
2021/03/18 05:36:38;;;;;;;1.70;0.95;;;19.00;23.80;;;;;;5071839;28;20423;-53
2021/03/18 05:39:05;;;;;;;0.73;0.68;;;19.00;23.80;;;;;;5071658;28;20179;-53
2021/03/18 05:41:30;;;;;;;1.20;1.08;;;19.00;23.70;;;;;;5071877;28;20532;-53
2021/03/18 05:43:57;;;;;;;0.70;0.60;;;19.10;23.80;;;;;;5071321;28;20166;-54
2021/03/18 05:46:23;;;;;;;1.13;0.90;;;19.10;23.80;;;;;;5073419;28;20734;-53
2021/03/18 05:48:52;;;;;;;1.27;0.73;;;19.10;23.80;;;;;;5072905;28;20162;-54
2021/03/18 05:51:18;;;;;;;1.10;1.00;;;19.10;23.80;;;;;;5073152;28;20163;-54
2021/03/18 05:53:48;;;;;;;1.08;0.98;;;19.10;23.80;;;;;;5072910;28;20688;-53
2021/03/18 05:56:15;;;;;;;1.05;0.90;;;19.10;23.70;;;;;;5075186;28;20299;-53
2021/03/18 05:58:41;;;;;;;1.02;0.88;;;19.10;23.70;;;;;;5077267;28;20182;-54
2021/03/18 06:01:09;;;;;;;1.00;0.90;;;19.10;23.60;;;;;;5076384;28;20189;-53
2021/03/18 06:03:37;;;;;;;0.85;0.80;;;19.10;23.60;;;;;;5076761;28;20466;-53
2021/03/18 06:06:08;;;;;;;0.63;0.63;;;19.10;23.60;;;;;;5076705;28;20194;-54
2021/03/18 06:08:41;;;;;;;1.55;1.00;;;19.10;23.60;;;;;;5076639;28;20260;-53
2021/03/18 06:11:09;;;;;;;1.45;1.05;;;19.20;23.60;;;;;;5075334;28;20189;-54
2021/03/18 06:13:36;;;;;;;1.42;1.10;;;19.20;23.60;;;;;;5077159;28;20179;-53
2021/03/18 06:16:03;;;;;;;0.90;0.80;;;19.20;23.60;;;;;;5076089;28;20162;-53
2021/03/18 06:18:29;;;;;;;0.60;0.60;;;19.20;23.60;;;;;;5076831;28;20150;-54
2021/03/18 06:20:56;;;;;;;0.87;0.67;;;19.20;23.60;;;;;;5076232;28;20158;-53
2021/03/18 06:23:22;;;;;;;1.25;0.77;;;19.20;23.60;;;;;;5076304;28;20416;-53
2021/03/18 06:25:49;;;;;;;1.00;0.90;;;19.20;23.60;;;;;;5076150;28;20189;-54
2021/03/18 06:28:18;;;;;;;0.93;0.68;;;19.20;23.60;;;;;;5076301;28;20162;-53
2021/03/18 06:31:11;;;;;;;1.10;0.95;;;19.10;23.60;;;;;;5074343;28;20303;-53
2021/03/18 06:34:03;;;;;;;1.17;1.08;;;19.20;23.60;;;;;;5076077;28;20200;-53
2021/03/18 06:36:32;;;;;;;1.52;1.10;;;19.10;23.60;;;;;;5075253;28;20235;-54
2021/03/18 06:39:10;;;;;;;1.55;0.98;;;19.20;23.70;;;;;;5075977;28;20164;-53
2021/03/18 06:41:39;;;;;;;1.00;0.90;;;19.20;23.70;;;;;;5076021;28;20668;-54
2021/03/18 06:44:19;;;;;;;1.20;0.85;;;19.20;23.60;;;;;;5075252;28;20219;-53
2021/03/18 06:46:45;;;;;;;0.95;0.90;;;19.20;23.60;;;;;;5075876;28;20194;-53
2021/03/18 06:49:12;;;;;;;1.05;0.95;;;19.20;24.20;;;;;;5075545;28;20155;-54
2021/03/18 06:54:26;;;;;;;0.90;0.80;;;18.90;23.40;;;;;;5032386;28;20578;-48
2021/03/18 06:56:53;;;;;;;0.93;0.82;;;19.30;23.70;;;;;;5127982;23;20256;-51
2021/03/18 06:59:40;;;;;;;0.77;0.77;;;19.30;23.70;;;;;;5115281;28;20173;-51
2021/03/18 07:02:09;;;;;;;1.20;0.90;;;19.30;23.70;;;;;;5116118;28;20157;-51
2021/03/18 07:04:49;;;;;;;0.88;0.70;;;19.30;23.70;;;;;;5115752;28;20157;-50
2021/03/18 07:07:19;;;;;;;1.00;0.90;;;19.30;23.70;;;;;;5115038;28;20265;-51
2021/03/18 07:09:50;;;;;;;1.10;1.00;;;19.30;23.70;;;;;;5115344;28;20576;-51
2021/03/18 07:12:19;;;;;;;7.90;1.08;;;21.30;25.10;;;;;;5115779;28;20165;-51
2021/03/18 07:14:50;;;;;;;1.13;0.90;;;19.30;23.70;;;;;;5115091;28;20142;-50
2021/03/18 07:17:36;;;;;;;1.45;1.08;;;19.30;23.70;;;;;;5115439;28;20153;-50
2021/03/18 07:20:28;;;;;;;1.00;0.85;;;19.30;23.70;;;;;;5115264;28;20157;-51
2021/03/18 07:22:57;;;;;;;1.85;1.00;;;19.40;23.80;;;;;;5111629;28;20196;-52
2021/03/18 07:25:30;;;;;;;1.67;0.80;;;19.40;23.80;;;;;;5115450;28;20189;-51
2021/03/18 07:28:03;;;;;;;1.17;0.95;;;19.40;23.80;;;;;;5115606;28;20145;-51
2021/03/18 07:30:34;;;;;;;1.10;0.88;;;19.40;23.80;;;;;;5114875;28;20600;-50
2021/03/18 07:33:01;;;;;;;3.63;1.58;;;19.40;23.80;;;;;;5113873;28;20156;-51
2021/03/18 07:35:28;;;;;;;1.35;0.90;;;19.40;23.80;;;;;;5113553;28;20617;-51
2021/03/18 07:37:55;;;;;;;1.10;1.00;;;19.40;23.80;;;;;;5115155;28;20168;-51
2021/03/18 07:40:24;;;;;;;1.20;1.10;;;19.50;23.80;;;;;;5113476;28;20173;-51
2021/03/18 07:42:51;;;;;;;1.20;1.00;;;19.40;23.80;;;;;;5114851;28;20157;-51
2021/03/18 07:45:21;;;;;;;1.08;0.88;;;19.50;23.90;;;;;;5113016;28;20169;-51
2021/03/18 07:47:48;;;;;;;1.15;0.70;;;19.50;23.90;;;;;;5115007;28;20153;-50
2021/03/18 07:50:18;;;;;;;0.80;0.80;;;19.50;23.80;;;;;;5096469;28;20206;-50
2021/03/18 07:52:47;;;;;;;1.00;0.90;;;19.50;23.80;;;;;;5115272;28;20164;-51
2021/03/18 07:55:18;;;;;;;0.73;0.70;;;19.50;23.70;;;;;;5114706;28;20173;-50
2021/03/18 07:57:50;;;;;;;0.90;0.70;;;19.50;23.60;;;;;;5113189;28;20212;-50
2021/03/18 08:00:27;;;;;;;0.60;0.55;;;19.50;23.60;;;;;;5091275;28;20186;-50
2021/03/18 08:03:21;;;;;;;1.02;0.93;;;19.10;23.30;;;;;;5095298;28;20164;-50
2021/03/18 08:05:49;;;;;;;1.08;0.82;;;19.60;23.50;;;;;;5114177;28;20201;-50
2021/03/18 08:08:33;;;;;;;0.90;0.75;;;19.60;23.50;;;;;;5114327;27;20198;-51
2021/03/18 08:11:17;;;;;;;1.05;0.80;;;19.60;23.40;;;;;;5112620;28;20153;-50
2021/03/18 08:13:50;;;;;;;1.00;0.80;;;19.60;23.40;;;;;;5112651;28;20646;-51
2021/03/18 08:16:25;;;;;;;1.27;1.17;;;19.60;23.40;;;;;;5109134;28;20170;-50
2021/03/18 08:18:52;;;;;;;2.28;1.20;;;19.60;23.30;;;;;;5096702;28;20163;-50
2021/03/18 08:21:18;;;;;;;1.02;0.85;;;19.60;23.30;;;;;;5111847;28;20172;-51
2021/03/18 08:23:48;;;;;;;2.17;1.40;;;19.60;23.30;;;;;;5113995;28;20165;-50
2021/03/18 08:26:34;;;;;;;0.80;0.77;;;19.70;23.40;;;;;;5113855;28;20421;-51
2021/03/18 08:29:04;;;;;;;1.05;0.90;;;19.70;23.30;;;;;;5113448;28;20187;-49
2021/03/18 08:31:32;;;;;;;0.80;0.80;;;19.70;23.30;;;;;;5111756;28;20210;-50
2021/03/18 08:34:00;;;;;;;0.80;0.70;;;19.70;23.30;;;;;;5102140;28;20249;-50
2021/03/18 08:36:33;;;;;;;0.80;0.80;;;19.70;23.20;;;;;;5092838;28;20157;-50
2021/03/18 08:39:00;;;;;;;0.80;0.80;;;19.70;23.20;;;;;;5094231;28;20227;-50
2021/03/18 08:41:33;;;;;;;0.90;0.68;;;19.70;23.20;;;;;;5094623;28;20161;-51
2021/03/18 08:44:22;;;;;;;1.08;0.98;;;19.70;23.10;;;;;;5111650;28;20168;-50
2021/03/18 08:47:04;;;;;;;0.82;0.73;;;19.80;23.20;;;;;;5094362;28;20197;-51
2021/03/18 08:49:33;;;;;;;0.70;0.70;;;19.80;23.10;;;;;;5092556;28;20199;-50
2021/03/18 08:52:03;;;;;;;2.03;0.90;;;19.80;23.10;;;;;;5098565;28;20160;-50
2021/03/18 08:54:41;;;;;;;2.08;1.10;;;19.80;23.10;;;;;;5113240;28;20161;-51
2021/03/18 08:57:08;;;;;;;0.82;0.77;;;19.90;23.10;;;;;;5108490;28;20231;-52
2021/03/18 08:59:35;;;;;;;1.27;0.95;;;19.90;23.10;;;;;;5092536;28;20193;-50
2021/03/18 09:02:03;;;;;;;1.15;1.00;;;19.90;23.10;;;;;;5092903;28;20166;-50
2021/03/18 09:04:39;;;;;;;1.13;0.70;;;20.00;23.10;;;;;;5092189;28;20724;-49
2021/03/18 09:07:12;;;;;;;1.42;0.98;;;20.10;23.00;;;;;;5092600;28;20209;-50
2021/03/18 09:09:42;;;;;;;1.25;1.10;;;20.20;22.70;;;;;;5091018;28;20210;-50
2021/03/18 09:12:09;;;;;;;1.88;0.98;;;20.20;22.50;;;;;;5092919;28;20153;-50
2021/03/18 09:14:39;;;;;;;0.80;0.68;;;20.20;22.40;;;;;;5091950;28;20172;-50
2021/03/18 09:17:10;;;;;;;1.17;1.00;;;20.30;22.50;;;;;;5092943;28;20154;-50
2021/03/18 09:19:37;;;;;;;1.15;1.05;;;20.30;22.40;;;;;;5092798;28;20165;-49
2021/03/18 09:22:05;;;;;;;1.00;0.90;;;20.30;23.00;;;;;;5098037;28;20489;-50
2021/03/18 09:24:40;;;;;;;1.20;0.90;;;20.30;22.40;;;;;;5107022;28;20157;-49
2021/03/18 09:27:08;;;;;;;1.00;0.80;;;20.30;22.40;;;;;;5093063;28;20193;-50
2021/03/18 09:29:34;;;;;;;0.90;0.90;;;20.30;22.40;;;;;;5102681;28;20642;-50
2021/03/18 09:32:04;;;;;;;0.80;0.70;;;20.20;22.40;;;;;;5118020;28;20172;-50
2021/03/18 09:34:34;;;;;;;1.05;0.95;;;20.20;22.40;;;;;;5103736;27;20268;-50
2021/03/18 09:37:00;;;;;;;0.80;0.80;;;20.20;22.40;;;;;;5101637;28;20549;-50
2021/03/18 09:39:26;;;;;;;0.90;0.60;;;20.20;22.50;;;;;;5100063;28;20265;-51
2021/03/18 09:41:55;;;;;;;0.80;0.80;;;20.20;22.50;;;;;;5106836;28;20905;-50
2021/03/18 09:44:23;;;;;;;1.10;1.00;;;20.20;22.50;;;;;;5097319;28;20535;-49
2021/03/18 09:47:00;;;;;;;0.95;0.80;;;20.20;22.60;;;;;;5088389;28;20391;-50
2021/03/18 09:49:30;;;;;;;1.30;1.13;;;20.20;22.60;;;;;;5098925;28;20161;-49
2021/03/18 09:51:57;;;;;;;1.17;1.05;;;20.20;22.60;;;;;;5102126;28;20157;-50
2021/03/18 09:54:24;;;;;;;1.00;0.90;;;20.20;22.70;;;;;;5106939;27;20188;-50
2021/03/18 09:56:53;;;;;;;1.20;1.10;;;20.10;22.60;;;;;;5111705;27;20224;-51
2021/03/18 09:59:23;;;;;;;1.33;1.15;;;20.10;22.60;;;;;;5118802;27;20236;-51
2021/03/18 10:01:49;;;;;;;1.17;1.08;;;20.20;22.70;;;;;;5113621;27;20244;-50
2021/03/18 10:04:17;;;;;;;1.15;0.90;;;20.20;22.70;;;;;;5098417;28;20253;-50
2021/03/18 10:06:48;;;;;;;0.77;0.73;;;20.20;22.70;;;;;;5099013;28;20217;-50
2021/03/18 10:09:25;;;;;;;1.38;0.90;;;20.20;22.70;;;;;;5098774;28;20286;-50
2021/03/18 10:11:54;;;;;;;1.52;0.95;;;20.20;22.70;;;;;;5097733;28;20687;-50
2021/03/18 10:14:25;;;;;;;1.20;0.95;;;20.20;22.70;;;;;;5110199;28;20183;-50
2021/03/18 10:16:53;;;;;;;1.40;1.23;;;20.20;22.70;;;;;;5117145;27;20180;-50
2021/03/18 10:19:22;;;;;;;0.77;0.77;;;20.20;22.70;;;;;;5119514;27;20157;-51
2021/03/18 10:21:48;;;;;;;1.05;0.63;;;20.20;22.70;;;;;;5098957;27;20613;-53
2021/03/18 10:24:16;;;;;;;1.17;1.07;;;20.20;22.60;;;;;;5106026;27;20208;-54
2021/03/18 10:26:43;;;;;;;0.98;0.80;;;20.20;22.60;;;;;;5114317;27;20458;-51
2021/03/18 10:29:13;;;;;;;0.93;0.80;;;20.30;22.60;;;;;;5115897;27;20215;-52
2021/03/18 10:31:40;;;;;;;0.70;0.60;;;20.30;22.60;;;;;;5116640;28;20169;-53
2021/03/18 10:34:26;;;;;;;0.70;0.60;;;20.30;22.50;;;;;;5081835;28;20199;-52
2021/03/18 10:36:52;;;;;;;0.80;0.75;;;20.30;22.50;;;;;;5116526;27;20201;-51
2021/03/18 10:39:22;;;;;;;0.95;0.85;;;20.30;22.50;;;;;;5118974;27;20257;-51
2021/03/18 10:41:52;;;;;;;0.80;0.80;;;20.30;22.50;;;;;;5115029;27;20165;-51
2021/03/18 10:44:21;;;;;;;0.93;0.70;;;20.30;22.60;;;;;;5114035;28;20173;-51
2021/03/18 10:46:47;;;;;;;1.00;0.90;;;20.20;22.50;;;;;;5114198;28;20275;-51
2021/03/18 10:49:16;;;;;;;1.40;0.80;;;20.30;23.10;;;;;;5114914;28;20150;-52
2021/03/18 10:51:47;;;;;;;1.10;1.00;;;20.30;22.60;;;;;;5114777;28;20215;-51
2021/03/18 10:54:19;;;;;;;1.65;1.10;;;20.20;22.60;;;;;;5099871;28;20172;-51
2021/03/18 10:56:45;;;;;;;1.35;1.15;;;20.30;22.70;;;;;;5107735;28;20213;-52
2021/03/18 10:59:15;;;;;;;1.73;0.90;;;20.20;22.60;;;;;;5105509;28;20195;-52
2021/03/18 11:01:41;;;;;;;0.82;0.82;;;20.20;22.60;;;;;;5110052;28;20165;-51
2021/03/18 11:04:08;;;;;;;1.67;1.23;;;20.20;22.70;;;;;;5113864;27;20519;-52
2021/03/18 11:06:44;;;;;;;1.02;0.77;;;20.20;22.70;;;;;;5108542;28;20259;-52
2021/03/18 11:09:11;;;;;;;1.00;0.90;;;20.20;22.70;;;;;;5108607;28;20177;-51
2021/03/18 11:11:37;;;;;;;1.35;1.00;;;20.20;22.70;;;;;;5108532;28;20272;-51
2021/03/18 11:14:09;;;;;;;1.73;1.00;;;20.20;22.70;;;;;;5103506;28;20252;-51
2021/03/18 11:16:35;;;;;;;1.70;1.35;;;20.20;22.70;;;;;;5104247;28;20212;-52
2021/03/18 11:19:06;;;;;;;0.80;0.70;;;20.20;22.70;;;;;;5103509;28;20181;-51
2021/03/18 11:21:37;;;;;;;0.90;0.73;;;20.20;22.70;;;;;;5113865;28;20307;-51
2021/03/18 11:24:07;;;;;;;1.17;1.08;;;20.20;22.70;;;;;;5114493;28;20256;-51
2021/03/18 11:26:33;;;;;;;1.60;0.98;;;20.20;22.70;;;;;;5113368;28;20608;-53
2021/03/18 11:29:08;;;;;;;2.00;0.88;;;20.20;22.70;;;;;;5092596;28;20551;-51
2021/03/18 11:31:41;;;;;;;0.80;0.73;;;20.30;22.70;;;;;;5088865;28;20169;-52
2021/03/18 11:34:29;;;;;;;1.88;0.90;;;20.30;22.70;;;;;;5107311;28;20256;-52
2021/03/18 11:37:14;;;;;;;1.15;1.05;;;20.20;22.60;;;;;;5114818;28;20672;-52
2021/03/18 11:39:43;;;;;;;1.00;0.82;;;20.30;22.70;;;;;;5112311;28;20176;-52
2021/03/18 11:42:08;;;;;;;0.93;0.90;;;20.30;22.70;;;;;;5102175;27;20674;-51
2021/03/18 11:44:34;;;;;;;1.50;0.83;;;20.30;22.60;;;;;;5114322;28;20189;-51
2021/03/18 11:47:05;;;;;;;1.27;0.90;;;20.30;22.70;;;;;;5113766;28;20254;-52
2021/03/18 11:49:31;;;;;;;0.88;0.80;;;20.30;22.60;;;;;;5112806;28;20171;-51
2021/03/18 11:51:57;;;;;;;0.93;0.87;;;20.30;22.70;;;;;;5112513;28;20169;-50
2021/03/18 11:54:25;;;;;;;1.40;1.03;;;20.30;22.70;;;;;;5114020;28;20506;-51
2021/03/18 11:56:51;;;;;;;1.80;1.20;;;20.30;22.70;;;;;;5107446;28;20212;-52
2021/03/18 11:59:20;;;;;;;2.23;1.47;;;20.30;22.60;;;;;;5108155;28;20192;-51
2021/03/18 12:01:46;;;;;;;1.20;1.10;;;20.30;22.70;;;;;;5107758;28;20173;-51
2021/03/18 12:04:14;;;;;;;1.60;1.50;;;20.30;22.60;;;;;;5097920;28;20204;-51
2021/03/18 12:06:40;;;;;;;1.80;1.50;;;20.30;22.60;;;;;;5101593;28;20213;-51
2021/03/18 12:09:06;;;;;;;3.60;2.30;;;20.30;22.70;;;;;;5102073;28;20476;-51
2021/03/18 12:11:32;;;;;;;1.83;1.55;;;20.30;22.70;;;;;;5101378;28;20169;-51
2021/03/18 12:13:58;;;;;;;2.70;2.47;;;20.30;22.70;;;;;;5093180;28;20169;-51
2021/03/18 12:16:23;;;;;;;2.17;1.97;;;20.30;22.70;;;;;;5093355;28;20399;-51
2021/03/18 12:18:49;;;;;;;2.33;2.13;;;20.30;22.70;;;;;;5105021;28;20250;-51
2021/03/18 12:21:15;;;;;;;2.43;2.23;;;20.30;22.70;;;;;;5112334;28;20910;-52
2021/03/18 12:23:43;;;;;;;2.30;2.10;;;20.30;22.50;;;;;;5113216;28;20211;-52
2021/03/18 12:26:09;;;;;;;3.58;2.58;;;20.30;22.60;;;;;;5112348;28;20223;-52
2021/03/18 12:28:36;;;;;;;2.57;2.37;;;20.30;22.60;;;;;;5095671;28;20200;-51
2021/03/18 12:31:02;;;;;;;3.15;2.38;;;20.30;22.60;;;;;;5111604;28;20176;-51
2021/03/18 12:33:27;;;;;;;5.43;3.00;;;20.30;22.50;;;;;;5111715;28;20230;-51
2021/03/18 12:35:53;;;;;;;4.07;2.40;;;20.30;22.50;;;;;;5102807;28;20205;-51
2021/03/18 12:38:21;;;;;;;3.83;3.42;;;20.30;22.50;;;;;;5089675;28;20685;-52
2021/03/18 12:40:49;;;;;;;3.10;2.80;;;20.30;22.50;;;;;;5093404;28;20286;-52
2021/03/18 12:43:15;;;;;;;4.28;3.25;;;20.40;22.60;;;;;;5101174;28;20172;-52
2021/03/18 12:45:44;;;;;;;3.10;2.80;;;20.30;22.50;;;;;;5102691;28;20747;-51
2021/03/18 12:48:11;;;;;;;5.05;3.00;;;20.40;22.60;;;;;;5093378;28;20884;-51
2021/03/18 12:50:37;;;;;;;4.57;3.03;;;20.30;22.50;;;;;;5095575;28;20161;-51
2021/03/18 12:53:02;;;;;;;3.63;2.53;;;20.30;22.50;;;;;;5113524;28;20487;-51
2021/03/18 12:55:28;;;;;;;4.47;3.53;;;20.40;22.60;;;;;;5113293;28;20419;-51
2021/03/18 12:57:55;;;;;;;3.63;3.33;;;20.40;22.50;;;;;;5112527;28;20568;-51
2021/03/18 13:00:25;;;;;;;6.40;3.85;;;20.40;22.50;;;;;;5111460;28;20228;-51
2021/03/18 13:02:51;;;;;;;3.97;3.22;;;20.50;22.50;;;;;;5091513;28;20283;-52
2021/03/18 13:05:23;;;;;;;5.33;4.03;;;20.50;22.40;;;;;;5091765;28;20588;-51